Time;durP1;ratioP1;P1;durP2;ratioP2;P2;SDS_P1;SDS_P2;PMS_P1;PMS_P2;Temp;Humidity;BMP_temperature;BMP_pressure;BME280_temperature;BME280_humidity;BME280_pressure;Samples;Min_cycle;Max_cycle;Signal;HPM_P1;HPM_P2
2022/09/24 00:01:34;;;;;;;11.32;10.40;;;13.70;99.90;;;;;;4960149;28;20502;-91
2022/09/24 00:04:04;;;;;;;10.82;9.93;;;13.70;99.90;;;;;;4960008;28;20063;-90
2022/09/24 00:06:36;;;;;;;11.38;9.85;;;13.70;99.90;;;;;;4959879;28;20027;-91
2022/09/24 00:09:04;;;;;;;11.02;10.00;;;13.70;99.90;;;;;;4959429;28;20092;-90
2022/09/24 00:11:31;;;;;;;10.35;9.55;;;13.70;99.90;;;;;;4944081;28;20058;-91
2022/09/24 00:13:58;;;;;;;10.45;9.60;;;13.70;99.90;;;;;;4959833;28;20023;-92
2022/09/24 00:16:27;;;;;;;10.80;9.98;;;13.70;99.90;;;;;;4959747;28;20508;-93
2022/09/24 00:18:54;;;;;;;11.10;10.27;;;13.80;99.90;;;;;;4959899;28;20034;-91
2022/09/24 00:21:25;;;;;;;12.27;11.15;;;13.80;99.90;;;;;;4959792;28;20035;-91
2022/09/24 00:23:58;;;;;;;12.00;10.90;;;13.80;99.90;;;;;;4959898;28;20027;-90
2022/09/24 00:29:12;;;;;;;12.10;10.90;;;13.80;99.90;;;;;;4975657;28;20031;-90
2022/09/24 00:31:39;;;;;;;11.52;10.52;;;13.70;99.90;;;;;;4959397;28;20476;-92
2022/09/24 00:34:06;;;;;;;11.88;10.85;;;13.80;99.90;;;;;;4959631;28;20023;-92
2022/09/24 00:36:32;;;;;;;11.98;10.40;;;13.80;99.90;;;;;;4959506;28;20047;-90
2022/09/24 00:39:00;;;;;;;11.65;10.68;;;13.80;99.90;;;;;;4959611;28;20019;-90
2022/09/24 00:41:30;;;;;;;12.13;11.02;;;13.80;99.90;;;;;;4959465;28;20098;-91
2022/09/24 00:44:01;;;;;;;11.77;10.50;;;13.70;99.90;;;;;;4959589;28;20027;-90
2022/09/24 00:46:34;;;;;;;11.40;10.50;;;13.80;99.90;;;;;;4959379;28;20515;-91
2022/09/24 00:49:10;;;;;;;12.88;10.73;;;13.70;99.90;;;;;;4964582;28;20121;-92
2022/09/24 00:51:37;;;;;;;10.75;9.82;;;13.70;99.90;;;;;;4960790;28;20034;-91
2022/09/24 00:54:08;;;;;;;15.07;11.25;;;13.70;99.90;;;;;;4959946;28;20030;-91
2022/09/24 00:56:38;;;;;;;16.15;11.70;;;13.60;99.90;;;;;;4960625;28;20039;-91
2022/09/24 00:59:16;;;;;;;13.55;12.15;;;13.50;99.90;;;;;;4959586;28;20027;-89
2022/09/24 01:01:47;;;;;;;14.25;12.25;;;13.40;99.90;;;;;;4961466;28;20037;-91
2022/09/24 01:04:15;;;;;;;13.63;11.73;;;13.20;99.90;;;;;;4960253;28;20026;-91
2022/09/24 01:06:41;;;;;;;13.88;12.52;;;13.00;99.90;;;;;;4958858;28;20097;-90
2022/09/24 01:09:09;;;;;;;12.85;11.65;;;12.90;99.90;;;;;;4962735;28;20055;-90
2022/09/24 01:12:05;;;;;;;13.15;11.60;;;12.80;99.90;;;;;;4946486;28;20511;-90
2022/09/24 01:14:50;;;;;;;13.15;11.20;;;12.70;99.90;;;;;;4958729;28;20082;-91
2022/09/24 01:17:25;;;;;;;14.05;11.40;;;12.70;99.90;;;;;;4974787;28;20070;-92
2022/09/24 01:20:15;;;;;;;12.05;10.32;;;12.70;99.90;;;;;;4974005;28;20125;-90
2022/09/24 01:22:54;;;;;;;11.32;10.25;;;12.70;99.90;;;;;;4958681;28;20031;-88
2022/09/24 01:25:39;;;;;;;11.57;10.43;;;12.80;99.90;;;;;;4974759;28;20038;-89
2022/09/24 01:28:32;;;;;;;12.98;10.88;;;12.70;99.90;;;;;;4958509;28;20394;-92
2022/09/24 01:31:07;;;;;;;12.80;10.80;;;12.70;99.90;;;;;;4958395;28;20022;-92
2022/09/24 01:33:35;;;;;;;11.45;10.27;;;12.60;99.90;;;;;;4958542;28;20038;-92
2022/09/24 01:36:07;;;;;;;14.82;10.45;;;12.60;99.90;;;;;;4958444;28;20046;-90
2022/09/24 01:38:43;;;;;;;10.80;9.80;;;12.60;99.90;;;;;;4958520;28;20031;-91
2022/09/24 01:41:14;;;;;;;12.73;9.85;;;12.50;99.90;;;;;;4958425;28;20491;-91
2022/09/24 01:43:42;;;;;;;12.15;9.77;;;12.50;99.90;;;;;;4958598;28;20030;-92
2022/09/24 01:46:11;;;;;;;11.07;9.60;;;12.40;99.90;;;;;;4958323;28;20031;-91
2022/09/24 01:48:39;;;;;;;13.88;10.32;;;12.40;99.90;;;;;;4958464;28;20400;-91
2022/09/24 01:51:32;;;;;;;17.35;10.30;;;12.40;99.90;;;;;;4958215;28;20027;-90
2022/09/24 01:54:10;;;;;;;12.55;10.57;;;12.40;99.90;;;;;;4958323;28;20031;-92
2022/09/24 01:57:04;;;;;;;12.88;10.40;;;12.40;99.90;;;;;;4942211;28;20039;-91
2022/09/24 01:59:40;;;;;;;12.85;9.65;;;12.40;99.90;;;;;;4958246;28;20027;-91
2022/09/24 02:02:19;;;;;;;11.10;9.90;;;12.30;99.90;;;;;;4958253;28;20045;-92
2022/09/24 02:04:53;;;;;;;10.18;9.27;;;12.30;99.90;;;;;;4958226;28;20030;-89
2022/09/24 02:07:39;;;;;;;11.07;9.85;;;12.20;99.90;;;;;;4957835;28;20030;-90
2022/09/24 02:10:17;;;;;;;9.80;8.80;;;12.10;99.90;;;;;;4942163;28;20118;-90
2022/09/24 02:12:51;;;;;;;10.20;9.25;;;12.10;99.90;;;;;;4958018;28;20026;-90
2022/09/24 02:15:27;;;;;;;13.90;9.43;;;12.00;99.90;;;;;;4958048;28;20082;-92
2022/09/24 02:17:58;;;;;;;10.98;8.98;;;12.00;99.90;;;;;;4958098;28;20039;-91
2022/09/24 02:20:28;;;;;;;12.82;8.80;;;12.00;99.90;;;;;;4957919;28;20118;-92
2022/09/24 02:22:56;;;;;;;9.98;8.43;;;12.10;99.90;;;;;;4958217;28;20053;-90
2022/09/24 02:25:49;;;;;;;10.35;8.23;;;12.10;99.90;;;;;;4958055;28;20033;-91
2022/09/24 02:28:18;;;;;;;9.15;8.43;;;12.10;99.90;;;;;;4942055;28;20027;-91
2022/09/24 02:30:56;;;;;;;9.63;8.63;;;12.10;99.90;;;;;;4958341;28;20026;-90
2022/09/24 02:36:10;;;;;;;8.60;7.80;;;12.10;99.90;;;;;;4977745;28;20046;-91
2022/09/24 02:38:39;;;;;;;10.23;8.50;;;12.00;99.90;;;;;;4961415;28;20019;-91
2022/09/24 02:41:07;;;;;;;9.00;8.20;;;12.00;99.90;;;;;;4961863;28;20484;-91
2022/09/24 02:43:35;;;;;;;13.15;8.77;;;12.00;99.90;;;;;;4961584;28;20027;-91
2022/09/24 02:46:02;;;;;;;9.57;8.40;;;12.00;99.90;;;;;;4967343;28;20035;-92
2022/09/24 02:48:28;;;;;;;11.48;8.80;;;12.00;99.90;;;;;;4962480;28;20038;-90
2022/09/24 02:50:54;;;;;;;10.05;8.93;;;12.00;99.90;;;;;;4961242;28;20094;-91
2022/09/24 02:53:24;;;;;;;12.00;8.90;;;12.00;99.90;;;;;;4961517;28;20030;-93
2022/09/24 02:55:50;;;;;;;14.73;10.65;;;12.00;99.90;;;;;;4961159;28;20066;-91
2022/09/24 02:58:17;;;;;;;14.30;9.85;;;11.90;99.90;;;;;;4961163;28;20035;-93
2022/09/24 03:00:43;;;;;;;12.70;8.88;;;11.90;99.90;;;;;;4961196;28;20027;-90
2022/09/24 03:03:10;;;;;;;16.27;9.07;;;11.90;99.90;;;;;;4961325;28;20029;-89
2022/09/24 03:05:36;;;;;;;13.65;9.25;;;11.90;99.90;;;;;;4961099;28;20113;-90
2022/09/24 03:08:06;;;;;;;10.05;8.68;;;11.90;99.90;;;;;;4960919;28;20058;-91
2022/09/24 03:10:33;;;;;;;13.13;8.93;;;11.90;99.90;;;;;;4961012;28;20039;-90
2022/09/24 03:13:00;;;;;;;11.10;8.60;;;11.90;99.90;;;;;;4960914;28;20399;-91
2022/09/24 03:15:30;;;;;;;10.80;8.23;;;11.80;99.90;;;;;;4960956;28;20073;-92
2022/09/24 03:17:56;;;;;;;11.43;8.80;;;11.80;99.90;;;;;;4960986;28;20431;-91
2022/09/24 03:20:23;;;;;;;11.40;7.28;;;11.80;99.90;;;;;;4960968;28;20114;-91
2022/09/24 03:23:02;;;;;;;16.77;7.70;;;11.80;99.90;;;;;;4961070;28;20019;-92
2022/09/24 03:25:29;;;;;;;11.85;7.43;;;11.80;99.90;;;;;;4960824;28;20023;-91
2022/09/24 03:27:55;;;;;;;11.52;7.20;;;11.80;99.90;;;;;;4960710;28;20027;-90
2022/09/24 03:33:06;;;;;;;;;;;11.80;99.90;;;;;;4977136;28;20031;-89
2022/09/24 03:35:33;;;;;;;10.35;7.47;;;11.80;99.90;;;;;;4976538;28;19921;-92
2022/09/24 03:37:59;;;;;;;8.98;6.95;;;11.70;99.90;;;;;;4960539;28;20058;-92
2022/09/24 03:40:25;;;;;;;9.75;7.47;;;11.70;99.90;;;;;;4960580;28;20049;-91
2022/09/24 03:42:53;;;;;;;8.82;7.03;;;11.60;99.90;;;;;;4959683;28;20093;-93
2022/09/24 03:45:19;;;;;;;8.50;6.97;;;11.60;99.90;;;;;;4960412;28;20027;-92
2022/09/24 03:47:46;;;;;;;8.25;7.10;;;11.50;99.90;;;;;;4960665;28;20030;-91
2022/09/24 03:50:12;;;;;;;8.50;6.70;;;11.40;99.90;;;;;;4960243;28;20066;-91
2022/09/24 03:52:39;;;;;;;7.45;6.38;;;11.40;99.90;;;;;;4960233;28;20034;-93
2022/09/24 03:55:29;;;;;;;8.48;6.40;;;11.40;99.90;;;;;;4961223;28;20023;-94
2022/09/24 03:57:57;;;;;;;7.28;6.53;;;11.40;99.90;;;;;;4899375;29;20048;-91
2022/09/24 04:00:27;;;;;;;8.27;6.20;;;11.40;99.90;;;;;;4888824;29;20515;-92
2022/09/24 04:02:54;;;;;;;8.98;6.18;;;11.40;99.90;;;;;;4901145;29;20052;-92
2022/09/24 04:05:21;;;;;;;9.95;6.78;;;11.40;99.90;;;;;;4899939;29;20056;-93
2022/09/24 04:07:47;;;;;;;10.25;6.50;;;11.50;99.90;;;;;;4898979;29;20041;-91
2022/09/24 04:10:14;;;;;;;8.07;6.35;;;11.50;99.90;;;;;;4899342;29;20052;-92
2022/09/24 04:12:42;;;;;;;10.50;6.18;;;11.40;99.90;;;;;;4883516;29;20052;-94
2022/09/24 04:15:10;;;;;;;6.88;6.03;;;11.40;99.90;;;;;;4898968;29;20045;-92
2022/09/24 04:17:37;;;;;;;6.47;5.88;;;11.40;99.90;;;;;;4899009;29;20037;-90
2022/09/24 04:20:05;;;;;;;7.05;6.03;;;11.40;99.90;;;;;;4883261;29;20025;-92
2022/09/24 04:22:31;;;;;;;9.30;5.95;;;11.40;99.90;;;;;;4899017;29;20047;-91
2022/09/24 04:24:57;;;;;;;7.07;6.00;;;11.40;99.90;;;;;;4899023;29;20084;-91
2022/09/24 04:27:24;;;;;;;8.38;6.15;;;11.20;99.90;;;;;;4898868;29;20518;-93
2022/09/24 04:29:53;;;;;;;9.70;5.88;;;11.10;99.90;;;;;;4898920;29;20474;-92
2022/09/24 04:32:22;;;;;;;6.10;5.50;;;11.10;99.90;;;;;;4898739;29;20028;-92
2022/09/24 04:34:48;;;;;;;7.82;5.90;;;11.10;99.90;;;;;;4935504;28;20043;-92
2022/09/24 04:37:15;;;;;;;8.45;5.80;;;11.00;99.90;;;;;;4959492;28;20496;-93
2022/09/24 04:39:42;;;;;;;7.10;5.78;;;11.00;99.90;;;;;;4959758;28;20037;-92
2022/09/24 04:42:08;;;;;;;7.18;5.60;;;11.00;99.90;;;;;;4959432;28;20094;-93
2022/09/24 04:44:35;;;;;;;6.88;6.10;;;11.00;99.90;;;;;;4956529;28;20022;-92
2022/09/24 04:47:02;;;;;;;9.13;5.88;;;11.00;99.90;;;;;;4960280;28;20469;-91
2022/09/24 04:49:32;;;;;;;9.27;6.47;;;11.00;99.90;;;;;;4959106;28;20038;-92
2022/09/24 04:51:58;;;;;;;12.48;6.63;;;11.00;99.90;;;;;;4959271;28;20038;-93
2022/09/24 04:54:28;;;;;;;10.60;6.50;;;11.00;99.90;;;;;;4959725;28;20026;-91
2022/09/24 04:56:55;;;;;;;8.45;5.18;;;11.10;99.90;;;;;;4959448;28;20093;-91
2022/09/24 04:59:22;;;;;;;6.75;5.55;;;11.10;99.90;;;;;;4959196;28;20646;-92
2022/09/24 05:01:49;;;;;;;5.88;5.20;;;11.20;99.90;;;;;;4959383;28;20074;-92
2022/09/24 05:04:15;;;;;;;6.07;5.50;;;11.40;99.90;;;;;;4959420;28;20393;-93
2022/09/24 05:06:42;;;;;;;6.57;5.70;;;11.50;99.90;;;;;;4959097;28;20041;-94
2022/09/24 05:09:08;;;;;;;6.80;6.10;;;11.50;99.90;;;;;;4955601;28;20047;-93
2022/09/24 05:11:35;;;;;;;7.38;5.88;;;11.50;99.90;;;;;;4939878;29;20031;-91
2022/09/24 05:14:01;;;;;;;11.27;6.13;;;11.60;99.90;;;;;;4939776;29;20055;-92
2022/09/24 05:16:29;;;;;;;7.72;6.07;;;11.70;99.90;;;;;;4923799;29;20039;-92
2022/09/24 05:18:56;;;;;;;7.00;6.40;;;11.90;99.90;;;;;;4924199;28;20030;-92
2022/09/24 05:21:26;;;;;;;8.13;6.70;;;12.20;99.90;;;;;;4956840;29;20083;-91
2022/09/24 05:23:53;;;;;;;7.47;6.80;;;12.50;99.90;;;;;;4923738;29;20027;-94
2022/09/24 05:29:05;;;;;;;10.18;9.20;;;14.30;99.90;;;;;;4939819;29;20074;-93
2022/09/24 05:31:35;;;;;;;11.60;9.20;;;15.70;99.90;;;;;;4955254;29;20055;-92
2022/09/24 05:34:05;;;;;;;10.15;9.27;;;17.00;99.90;;;;;;4939723;29;20034;-94
2022/09/24 05:36:32;;;;;;;13.63;12.52;;;18.20;99.90;;;;;;4958688;29;20059;-95
2022/09/24 05:38:59;;;;;;;12.80;11.80;;;18.80;99.90;;;;;;4965669;29;20028;-93
2022/09/24 05:41:25;;;;;;;13.52;12.55;;;20.20;99.90;;;;;;4956621;28;20130;-93
2022/09/24 05:43:52;;;;;;;12.98;12.13;;;21.50;99.90;;;;;;4956196;29;20059;-93
2022/09/24 05:46:19;;;;;;;13.90;12.90;;;22.00;99.90;;;;;;4956123;29;20385;-94
2022/09/24 05:48:45;;;;;;;14.68;13.65;;;22.00;99.90;;;;;;4955269;29;20440;-95
2022/09/24 05:51:12;;;;;;;15.45;14.40;;;21.40;99.90;;;;;;4956275;29;20039;-93
2022/09/24 05:53:38;;;;;;;16.23;15.02;;;21.30;99.90;;;;;;4955421;28;20023;-92
2022/09/24 05:56:05;;;;;;;15.65;14.75;;;21.60;99.90;;;;;;4955494;29;20070;-94
2022/09/24 05:58:32;;;;;;;16.30;15.30;;;22.30;99.90;;;;;;4955573;29;20035;-93
2022/09/24 06:01:00;;;;;;;16.92;15.77;;;22.00;99.90;;;;;;4955367;29;20126;-94
2022/09/24 06:03:33;;;;;;;16.58;15.45;;;21.60;99.90;;;;;;4954953;28;20019;-92
2022/09/24 06:06:03;;;;;;;18.02;16.27;;;21.60;99.90;;;;;;4957248;28;20377;-94
2022/09/24 06:08:34;;;;;;;18.23;16.35;;;21.90;99.90;;;;;;4968071;28;20043;-93
2022/09/24 06:11:07;;;;;;;17.08;15.82;;;22.10;99.90;;;;;;4946506;28;20030;-92
2022/09/24 06:13:35;;;;;;;17.15;15.55;;;22.20;99.90;;;;;;4962071;28;20031;-94
2022/09/24 06:16:09;;;;;;;16.92;15.60;;;22.60;99.90;;;;;;4962236;28;20043;-93
2022/09/24 06:18:44;;;;;;;16.02;15.00;;;23.00;99.90;;;;;;4962761;28;20050;-93
2022/09/24 06:21:16;;;;;;;16.48;15.13;;;23.10;99.90;;;;;;4939418;29;20548;-94
2022/09/24 06:23:47;;;;;;;16.23;15.13;;;23.00;99.90;;;;;;4938854;29;20406;-93
2022/09/24 06:26:14;;;;;;;16.02;14.82;;;23.00;99.90;;;;;;4938764;29;20048;-92
2022/09/24 06:28:41;;;;;;;16.10;14.82;;;22.90;99.90;;;;;;4938790;29;20119;-94
2022/09/24 06:31:10;;;;;;;16.15;14.75;;;23.70;99.90;;;;;;4938600;29;20031;-94
2022/09/24 06:33:39;;;;;;;16.00;15.00;;;23.50;99.90;;;;;;4939306;29;20046;-93
2022/09/24 06:36:06;;;;;;;16.25;15.00;;;23.30;99.90;;;;;;4938529;29;20040;-94
2022/09/24 06:38:34;;;;;;;16.05;15.00;;;23.40;99.90;;;;;;4939131;29;20118;-94
2022/09/24 06:43:36;;;;;;;16.25;15.00;;;23.20;99.90;;;;;;5101436;23;20058;-77
2022/09/24 06:46:03;;;;;;;15.95;14.73;;;23.60;99.90;;;;;;4980639;28;20062;-85
2022/09/24 06:48:30;;;;;;;15.68;14.23;;;23.70;99.90;;;;;;4963128;28;20046;-87
2022/09/24 06:50:57;;;;;;;15.40;14.30;;;24.30;99.90;;;;;;4963600;28;20042;-87
2022/09/24 06:53:23;;;;;;;15.73;14.73;;;24.50;99.90;;;;;;4960731;28;20039;-88
2022/09/24 06:55:50;;;;;;;15.55;14.50;;;24.50;99.90;;;;;;4963157;28;20027;-88
2022/09/24 06:58:19;;;;;;;15.07;13.85;;;25.60;99.90;;;;;;4963290;28;20026;-86
2022/09/24 07:00:53;;;;;;;15.18;14.23;;;25.80;99.90;;;;;;4963562;28;20468;-85
2022/09/24 07:03:20;;;;;;;;;;;25.50;99.90;;;;;;4963780;28;20483;-87
2022/09/24 07:05:47;;;;;;;15.70;14.70;;;25.20;99.90;;;;;;4963282;28;19925;-86
2022/09/24 07:08:14;;;;;;;16.52;15.18;;;25.20;99.90;;;;;;4963241;28;20118;-86
2022/09/24 07:10:47;;;;;;;16.13;14.93;;;25.30;99.90;;;;;;4963196;28;20090;-88
2022/09/24 07:13:22;;;;;;;15.93;14.90;;;25.10;99.90;;;;;;4962844;28;20031;-87
2022/09/24 07:15:55;;;;;;;16.20;14.95;;;24.90;99.90;;;;;;4961667;28;20043;-91
2022/09/24 07:18:21;;;;;;;15.77;14.98;;;24.80;99.90;;;;;;4959641;28;20077;-91
2022/09/24 07:20:53;;;;;;;16.38;14.95;;;24.60;99.90;;;;;;4961249;28;20027;-90
2022/09/24 07:23:21;;;;;;;15.23;14.40;;;25.20;99.90;;;;;;4962012;28;20113;-90
2022/09/24 07:25:49;;;;;;;15.57;14.77;;;24.90;99.90;;;;;;4961074;28;20118;-92
2022/09/24 07:28:17;;;;;;;15.70;14.90;;;24.50;99.90;;;;;;4960791;28;20461;-90
2022/09/24 07:30:44;;;;;;;15.82;14.98;;;24.10;99.90;;;;;;4960805;28;20058;-90
2022/09/24 07:33:12;;;;;;;16.10;15.20;;;24.10;99.90;;;;;;4961637;28;20034;-91
2022/09/24 07:35:39;;;;;;;15.60;14.70;;;23.90;99.90;;;;;;4960755;28;20556;-90
2022/09/24 07:38:15;;;;;;;15.88;15.07;;;24.00;99.90;;;;;;4962592;28;20043;-92
2022/09/24 08:02:16;;;;;;;15.57;14.77;;;24.60;99.90;;;;;;4921974;29;20055;-89
2022/09/24 08:04:44;;;;;;;16.08;15.25;;;24.30;99.90;;;;;;4941345;29;20036;-93
2022/09/24 08:07:14;;;;;;;17.05;15.82;;;24.50;99.90;;;;;;4924239;29;20036;-91
2022/09/24 08:09:41;;;;;;;15.90;15.10;;;24.20;99.90;;;;;;4924204;29;20111;-87
2022/09/24 08:12:08;;;;;;;16.85;15.50;;;23.80;99.90;;;;;;4923653;29;20499;-86
2022/09/24 08:14:35;;;;;;;16.10;15.30;;;23.90;99.90;;;;;;4921724;29;20024;-89
2022/09/24 08:17:01;;;;;;;15.68;14.88;;;23.90;99.90;;;;;;4921844;29;20036;-89
2022/09/24 08:19:29;;;;;;;15.50;14.80;;;23.50;99.90;;;;;;4921691;29;20051;-92
2022/09/24 08:21:57;;;;;;;16.25;15.23;;;23.00;99.90;;;;;;4921678;29;20042;-92
2022/09/24 08:24:26;;;;;;;15.63;14.70;;;22.90;99.90;;;;;;4921572;29;20059;-92
2022/09/24 08:26:58;;;;;;;16.27;15.38;;;23.30;99.90;;;;;;4921580;29;20031;-92
2022/09/24 08:29:39;;;;;;;16.00;15.20;;;23.90;99.90;;;;;;4921422;29;20031;-93
2022/09/24 08:32:14;;;;;;;16.23;15.32;;;24.20;99.90;;;;;;4921668;29;20517;-89
2022/09/24 08:34:41;;;;;;;16.52;15.57;;;24.40;99.90;;;;;;4921654;29;20076;-89
2022/09/24 08:37:07;;;;;;;16.30;15.40;;;24.40;99.90;;;;;;4905412;29;20107;-89
2022/09/24 08:39:35;;;;;;;16.98;16.08;;;24.00;99.90;;;;;;4921153;29;20546;-92
2022/09/24 08:42:11;;;;;;;16.85;15.88;;;24.00;99.90;;;;;;4944537;23;20149;-95
2022/09/24 08:54:13;;;;;;;17.83;16.73;;;24.40;99.90;;;;;;5258845;23;20030;-93
2022/09/24 09:03:02;;;;;;;16.73;15.82;;;24.00;99.90;;;;;;5169984;23;20042;-92
2022/09/24 09:05:53;;;;;;;17.02;15.95;;;24.30;99.90;;;;;;4944530;28;20031;-93
2022/09/24 09:09:02;;;;;;;16.88;15.98;;;24.30;99.90;;;;;;4938148;29;20077;-94
2022/09/24 09:11:33;;;;;;;17.25;16.35;;;24.50;99.90;;;;;;4923743;29;20067;-94
2022/09/24 09:14:21;;;;;;;17.80;16.70;;;24.30;99.90;;;;;;4923901;29;20055;-92
2022/09/24 09:17:03;;;;;;;17.20;16.25;;;24.50;99.90;;;;;;4924295;29;20045;-94
2022/09/24 09:19:33;;;;;;;16.63;15.75;;;24.40;99.90;;;;;;4923891;29;20498;-92
2022/09/24 09:22:22;;;;;;;18.23;16.83;;;23.60;99.90;;;;;;4924942;29;20039;-93
2022/09/24 09:25:13;;;;;;;17.35;16.42;;;23.60;99.90;;;;;;4939207;29;20512;-93
2022/09/24 09:27:47;;;;;;;17.40;16.50;;;23.30;99.90;;;;;;4926344;29;20069;-94
2022/09/24 09:31:09;;;;;;;17.88;16.88;;;22.90;99.90;;;;;;4925106;29;20035;-94
2022/09/24 09:38:18;;;;;;;16.90;15.90;;;23.00;99.90;;;;;;4862631;29;20056;-94
2022/09/24 09:43:44;;;;;;;17.17;16.25;;;24.00;99.90;;;;;;4965377;29;20114;-92
2022/09/24 09:46:24;;;;;;;16.95;15.95;;;24.10;99.90;;;;;;4949410;29;20039;-92
2022/09/24 09:49:07;;;;;;;16.60;15.70;;;24.10;99.90;;;;;;4948839;29;20043;-93
2022/09/24 09:51:40;;;;;;;16.67;15.77;;;24.30;99.90;;;;;;4949426;29;20377;-92
2022/09/24 09:54:07;;;;;;;16.70;15.80;;;24.60;99.90;;;;;;4949989;29;20071;-92
2022/09/24 09:56:43;;;;;;;16.08;15.27;;;24.70;99.90;;;;;;4943955;29;20089;-92
2022/09/24 09:59:10;;;;;;;16.83;15.82;;;24.90;99.90;;;;;;4943553;29;20035;-94
2022/09/24 10:01:42;;;;;;;16.38;15.57;;;25.00;99.90;;;;;;4941631;29;20045;-93
2022/09/24 10:04:36;;;;;;;16.63;15.73;;;25.10;99.90;;;;;;4942779;29;20031;-93
2022/09/24 10:07:17;;;;;;;16.50;15.70;;;25.40;99.90;;;;;;5149080;23;20010;-94
2022/09/24 10:10:02;;;;;;;16.70;15.80;;;25.30;99.90;;;;;;4931530;29;20089;-93
2022/09/24 10:12:29;;;;;;;16.90;16.10;;;25.40;99.90;;;;;;4941459;29;20051;-92
2022/09/24 10:15:02;;;;;;;17.27;16.27;;;25.20;99.90;;;;;;4941432;29;20047;-92
2022/09/24 10:17:38;;;;;;;17.65;16.45;;;24.80;99.90;;;;;;4940703;29;20043;-92
2022/09/24 10:20:27;;;;;;;17.27;16.38;;;24.60;99.90;;;;;;4936899;29;20058;-92
2022/09/24 10:23:03;;;;;;;17.58;16.48;;;24.50;99.90;;;;;;4936972;29;20031;-93
2022/09/24 10:25:31;;;;;;;17.33;16.33;;;24.60;99.90;;;;;;4936155;29;20036;-92
2022/09/24 10:31:12;;;;;;;17.38;16.45;;;24.70;99.60;;;;;;4925379;29;20102;-93
2022/09/24 10:33:42;;;;;;;17.00;16.00;;;24.60;99.50;;;;;;4936100;29;20027;-92
2022/09/24 10:36:25;;;;;;;17.30;16.30;;;24.40;99.40;;;;;;4920181;29;20059;-93
2022/09/24 10:39:12;;;;;;;17.40;16.27;;;24.40;99.60;;;;;;4936175;29;20039;-91
2022/09/24 10:41:49;;;;;;;17.27;16.30;;;24.60;99.30;;;;;;4920390;29;20042;-92
2022/09/24 10:44:17;;;;;;;16.80;15.90;;;24.70;98.80;;;;;;4936455;29;20118;-92
2022/09/24 10:47:10;;;;;;;17.70;16.55;;;24.60;98.80;;;;;;4923546;29;20032;-92
2022/09/24 10:49:53;;;;;;;15.90;15.20;;;24.80;99.70;;;;;;4920201;29;20032;-92
2022/09/24 10:52:35;;;;;;;17.70;16.70;;;23.60;99.60;;;;;;4920863;29;20039;-92
2022/09/24 10:55:36;;;;;;;16.80;16.00;;;23.70;99.50;;;;;;4923111;29;20031;-92
2022/09/24 10:58:08;;;;;;;17.05;16.15;;;24.00;98.70;;;;;;4939127;29;20044;-92
2022/09/24 11:00:40;;;;;;;16.98;15.93;;;24.30;98.80;;;;;;4939692;29;20042;-92
2022/09/24 11:03:28;;;;;;;17.35;16.23;;;24.60;98.60;;;;;;4939842;29;20032;-93
2022/09/24 11:06:22;;;;;;;16.67;15.75;;;24.90;98.30;;;;;;4924621;29;20127;-93
2022/09/24 11:09:00;;;;;;;17.48;16.30;;;24.90;98.70;;;;;;4923777;29;20051;-93
2022/09/24 11:11:38;;;;;;;16.75;15.80;;;24.80;98.60;;;;;;4923819;29;20043;-92
2022/09/24 11:14:19;;;;;;;16.92;16.02;;;24.90;98.00;;;;;;4924234;29;20038;-93
2022/09/24 11:17:12;;;;;;;17.20;16.30;;;25.00;97.70;;;;;;4925504;29;20043;-92
2022/09/24 11:20:16;;;;;;;16.90;15.95;;;25.00;97.60;;;;;;4939821;29;20027;-93
2022/09/24 11:23:09;;;;;;;17.23;16.33;;;24.80;97.20;;;;;;4939703;29;20035;-92
2022/09/24 11:26:14;;;;;;;17.35;16.35;;;24.80;97.00;;;;;;4923731;29;20067;-92
2022/09/24 11:37:43;;;;;;;17.40;16.40;;;24.90;98.80;;;;;;6064707;23;21126;31
2022/09/24 12:45:05;;;;;;;16.95;15.90;;;23.00;99.90;;;;;;5524341;23;20051;-94
2022/09/24 12:47:47;;;;;;;16.75;15.85;;;23.00;99.90;;;;;;4946170;28;20034;-93
2022/09/24 12:50:30;;;;;;;17.33;16.35;;;22.70;99.90;;;;;;4944555;28;20022;-94
2022/09/24 12:52:57;;;;;;;16.65;15.75;;;22.70;99.90;;;;;;4925392;29;20047;-93
2022/09/24 12:55:30;;;;;;;17.33;16.27;;;22.70;99.90;;;;;;4925874;29;20035;-93
2022/09/24 12:57:59;;;;;;;16.80;15.90;;;22.80;99.90;;;;;;4925885;29;20070;-93
2022/09/24 13:00:46;;;;;;;17.30;16.33;;;22.90;99.90;;;;;;4924358;29;20055;-94
2022/09/24 13:03:33;;;;;;;19.58;18.10;;;22.90;99.90;;;;;;4941867;29;20058;-94
2022/09/24 13:06:01;;;;;;;16.58;15.68;;;22.90;99.90;;;;;;4924192;29;20037;-93
2022/09/24 13:08:39;;;;;;;17.00;15.88;;;22.80;99.90;;;;;;4925397;29;20027;-94
2022/09/24 13:11:33;;;;;;;16.70;15.63;;;22.90;99.90;;;;;;4924059;29;20027;-91
2022/09/24 13:14:12;;;;;;;;;;;23.00;99.90;;;;;;4924478;29;20031;-92
2022/09/24 13:16:46;;;;;;;16.42;15.52;;;22.80;99.90;;;;;;4924085;29;20438;-92
2022/09/24 13:19:42;;;;;;;16.05;15.15;;;22.70;99.90;;;;;;4940050;29;20059;-94
2022/09/24 13:22:24;;;;;;;16.30;15.32;;;22.60;99.90;;;;;;4924050;29;20032;-92
2022/09/24 13:51:15;;;;;;;14.93;14.15;;;22.40;99.90;;;;;;5829413;23;20124;-94
2022/09/24 14:10:24;;;;;;;15.90;15.00;;;22.60;99.90;;;;;;5256346;23;20096;-93
2022/09/24 14:16:29;;;;;;;17.27;15.68;;;22.80;99.90;;;;;;4945116;23;20051;-93
2022/09/24 14:20:00;;;;;;;;;;;;;;;;;;;;;
2022/09/24 14:22:37;;;;;;;16.75;15.75;;;23.20;99.90;;;;;;4965964;28;20036;-93
2022/09/24 14:25:10;;;;;;;16.63;15.63;;;23.30;99.90;;;;;;4941791;29;20393;-94
2022/09/24 14:28:10;;;;;;;16.75;15.50;;;23.50;99.90;;;;;;4948917;29;20031;-93
2022/09/24 14:30:49;;;;;;;16.20;15.40;;;23.60;99.90;;;;;;4931405;29;20067;-94
2022/09/24 14:33:18;;;;;;;15.55;14.85;;;23.50;99.90;;;;;;4945275;29;20055;-92
2022/09/24 14:35:52;;;;;;;16.20;15.30;;;23.30;99.90;;;;;;4945580;29;20027;-94
2022/09/24 14:38:34;;;;;;;15.70;14.80;;;23.30;99.90;;;;;;4950418;29;20051;-93
2022/09/24 14:41:25;;;;;;;15.85;15.05;;;23.30;99.90;;;;;;4932958;29;20042;-94
2022/09/24 14:44:03;;;;;;;15.73;14.95;;;23.50;99.90;;;;;;4946893;29;20035;-93
2022/09/24 14:46:47;;;;;;;16.20;15.30;;;23.30;99.90;;;;;;4947473;29;20032;-93
2022/09/24 14:49:53;;;;;;;16.23;15.43;;;23.10;99.90;;;;;;4948517;29;20050;-94
2022/09/24 14:52:42;;;;;;;16.38;15.40;;;23.00;99.90;;;;;;4951605;29;20042;-94
2022/09/24 14:55:14;;;;;;;16.25;15.45;;;22.90;99.90;;;;;;4954435;29;20544;-93
2022/09/24 14:57:41;;;;;;;16.08;15.35;;;22.90;99.90;;;;;;4939439;29;20035;-93
2022/09/24 15:00:35;;;;;;;16.45;15.45;;;23.00;99.90;;;;;;4942746;29;20035;-94
2022/09/24 15:03:12;;;;;;;16.10;15.30;;;23.00;99.80;;;;;;4941106;29;20082;-94
2022/09/24 15:06:00;;;;;;;16.10;15.30;;;23.00;99.20;;;;;;4942328;29;20543;-94
2022/09/24 15:08:45;;;;;;;16.35;15.45;;;23.10;99.30;;;;;;4940571;29;20036;-94
2022/09/24 15:11:20;;;;;;;16.17;15.38;;;23.30;99.50;;;;;;4944090;29;20039;-94
2022/09/24 15:13:58;;;;;;;17.02;15.77;;;23.30;99.30;;;;;;4946126;28;20059;-93
2022/09/24 15:23:30;;;;;;;16.48;15.48;;;23.30;99.90;;;;;;5941741;23;21097;31
2022/09/24 15:48:45;;;;;;;16.90;15.77;;;22.70;99.90;;;;;;4975203;28;20114;-92
2022/09/24 15:51:18;;;;;;;16.42;15.52;;;22.70;99.90;;;;;;4976717;28;20038;-92
2022/09/24 15:53:46;;;;;;;16.00;15.00;;;22.60;99.90;;;;;;4972950;28;20058;-94
2022/09/24 15:56:16;;;;;;;16.27;15.32;;;22.50;99.90;;;;;;4963143;28;20480;-94
2022/09/24 15:58:46;;;;;;;16.30;15.40;;;22.40;99.90;;;;;;4959171;29;20039;-93
2022/09/24 16:01:19;;;;;;;16.77;15.50;;;22.30;99.90;;;;;;4959006;29;20114;-93
2022/09/24 16:03:53;;;;;;;16.33;15.40;;;22.20;99.90;;;;;;4959981;29;20035;-93
2022/09/24 16:06:20;;;;;;;17.08;15.63;;;22.10;99.90;;;;;;4945374;29;20038;-93
2022/09/24 16:08:47;;;;;;;18.02;16.60;;;22.00;99.90;;;;;;4931962;29;20031;-94
2022/09/24 16:11:26;;;;;;;30.25;23.92;;;21.90;99.90;;;;;;4960620;29;20031;-93
2022/09/24 16:13:52;;;;;;;32.33;23.77;;;21.90;99.90;;;;;;4958473;29;20130;-93
2022/09/24 16:16:19;;;;;;;24.33;21.17;;;21.70;99.90;;;;;;4959401;28;20039;-93
2022/09/24 16:18:45;;;;;;;23.85;20.13;;;21.60;99.90;;;;;;4956919;28;20503;-91
2022/09/24 16:21:12;;;;;;;16.88;15.73;;;21.50;99.90;;;;;;4957465;29;20477;-92
2022/09/24 16:23:38;;;;;;;17.08;15.57;;;21.50;99.90;;;;;;4957174;29;20031;-92
2022/09/24 16:26:05;;;;;;;16.13;15.13;;;21.40;99.90;;;;;;4956794;29;20027;-92
2022/09/24 16:28:32;;;;;;;15.40;14.50;;;21.30;99.90;;;;;;4956690;28;20500;-92
2022/09/24 16:31:04;;;;;;;15.65;14.57;;;21.20;99.90;;;;;;4957291;29;20082;-93
2022/09/24 16:33:38;;;;;;;16.45;15.05;;;21.10;99.90;;;;;;4957681;29;20034;-93
2022/09/24 16:36:07;;;;;;;15.90;14.52;;;20.90;99.90;;;;;;4963297;29;20135;-93